Time;durP1;ratioP1;P1;durP2;ratioP2;P2;SDS_P1;SDS_P2;PMS_P1;PMS_P2;Temp;Humidity;BMP_temperature;BMP_pressure;BME280_temperature;BME280_humidity;BME280_pressure;Samples;Min_cycle;Max_cycle;Signal;HPM_P1;HPM_P2
2022/03/30 00:01:27;;;;;;;14.23;6.37;;;9.00;99.90;;;;;;5050376;28;20549;-72
2022/03/30 00:03:54;;;;;;;18.50;7.83;;;8.90;99.90;;;;;;5045371;28;20616;-72
2022/03/30 00:06:21;;;;;;;12.10;7.37;;;8.80;99.90;;;;;;5055023;28;20901;-73
2022/03/30 00:08:48;;;;;;;12.37;6.20;;;8.50;99.90;;;;;;5048485;28;20524;-72
2022/03/30 00:11:16;;;;;;;16.40;8.03;;;8.60;99.90;;;;;;5051046;28;20975;-72
2022/03/30 00:13:43;;;;;;;13.20;7.30;;;8.60;99.90;;;;;;5049212;28;20860;-73
2022/03/30 00:16:11;;;;;;;19.23;8.77;;;8.60;99.90;;;;;;5057831;28;20576;-72
2022/03/30 00:18:38;;;;;;;15.83;7.93;;;8.70;99.90;;;;;;5056293;28;20463;-72
2022/03/30 00:21:05;;;;;;;16.13;6.10;;;8.80;99.90;;;;;;5051087;28;21000;-72
2022/03/30 00:23:32;;;;;;;24.47;7.63;;;8.50;99.90;;;;;;5058993;28;20959;-72
2022/03/30 00:25:58;;;;;;;15.70;6.70;;;8.50;99.90;;;;;;5053417;28;20970;-72
2022/03/30 00:28:28;;;;;;;11.23;6.40;;;8.50;99.90;;;;;;5043063;28;20485;-71
2022/03/30 00:30:55;;;;;;;12.67;6.60;;;8.50;99.90;;;;;;5050047;28;20465;-71
2022/03/30 00:33:21;;;;;;;8.30;6.77;;;8.30;99.90;;;;;;5049389;28;20959;-71
2022/03/30 00:35:48;;;;;;;13.50;6.20;;;8.30;99.90;;;;;;5054486;28;20836;-71
2022/03/30 00:38:15;;;;;;;15.63;5.97;;;8.30;99.90;;;;;;5047841;28;20545;-73
2022/03/30 00:40:42;;;;;;;25.93;7.37;;;8.40;99.90;;;;;;5050075;28;20511;-73
2022/03/30 00:43:08;;;;;;;13.80;7.23;;;8.50;99.90;;;;;;5054237;28;20507;-72
2022/03/30 00:45:36;;;;;;;13.63;5.53;;;8.60;99.90;;;;;;5047455;28;20527;-72
2022/03/30 00:48:04;;;;;;;10.33;5.73;;;8.50;99.90;;;;;;5048709;28;20644;-72
2022/03/30 00:50:31;;;;;;;13.93;6.87;;;8.30;99.90;;;;;;5054762;28;20510;-73
2022/03/30 00:52:58;;;;;;;11.43;6.67;;;8.10;99.90;;;;;;5053655;28;20628;-72
2022/03/30 00:55:25;;;;;;;14.80;5.90;;;8.00;99.90;;;;;;5055525;28;20500;-74
2022/03/30 00:57:53;;;;;;;12.47;6.73;;;7.80;99.90;;;;;;5061016;28;20433;-73
2022/03/30 01:00:20;;;;;;;14.93;7.23;;;7.80;99.90;;;;;;5051512;28;21025;-73
2022/03/30 01:02:50;;;;;;;9.37;5.97;;;7.60;99.90;;;;;;5060566;28;20433;-72
2022/03/30 01:05:18;;;;;;;13.20;7.80;;;7.80;99.90;;;;;;5054584;28;20458;-72
2022/03/30 01:07:45;;;;;;;10.07;6.90;;;8.00;99.90;;;;;;5054244;28;20631;-72
2022/03/30 01:10:13;;;;;;;13.83;5.87;;;8.10;99.90;;;;;;5055199;28;20847;-72
2022/03/30 01:12:40;;;;;;;19.10;7.57;;;8.10;99.90;;;;;;5058744;28;20728;-71
2022/03/30 01:15:09;;;;;;;11.20;7.70;;;8.20;99.90;;;;;;5057615;28;20530;-71
2022/03/30 01:17:37;;;;;;;14.20;6.63;;;8.00;99.90;;;;;;5055349;28;20432;-72
2022/03/30 01:20:08;;;;;;;10.63;6.63;;;8.00;99.90;;;;;;5054032;28;20913;-72
2022/03/30 01:22:36;;;;;;;10.83;6.27;;;7.90;99.90;;;;;;5050945;28;20986;-72
2022/03/30 01:25:03;;;;;;;13.63;6.80;;;8.10;99.90;;;;;;5052957;28;20551;-72
2022/03/30 01:27:30;;;;;;;12.53;5.77;;;8.10;99.90;;;;;;5052397;28;20491;-71
2022/03/30 01:32:42;;;;;;;15.00;5.73;;;8.10;99.90;;;;;;5054657;28;20432;-72
2022/03/30 01:35:11;;;;;;;9.93;6.17;;;8.00;99.90;;;;;;5065302;22;20591;-78
2022/03/30 01:37:40;;;;;;;13.07;6.60;;;7.80;99.90;;;;;;5052155;28;20441;-77
2022/03/30 01:40:08;;;;;;;11.97;7.47;;;7.90;99.90;;;;;;5054594;28;20436;-79
2022/03/30 01:42:36;;;;;;;15.10;7.43;;;7.90;99.90;;;;;;5057728;28;20455;-78
2022/03/30 01:45:03;;;;;;;13.17;6.50;;;7.90;99.90;;;;;;5050833;28;20460;-79
2022/03/30 01:47:30;;;;;;;10.60;7.30;;;8.00;99.90;;;;;;5035246;28;21234;-77
2022/03/30 01:49:57;;;;;;;9.80;5.67;;;7.90;99.90;;;;;;5042014;28;20491;-77
2022/03/30 01:52:24;;;;;;;10.87;5.90;;;7.90;99.90;;;;;;5051961;28;20455;-78
2022/03/30 01:54:52;;;;;;;10.07;6.47;;;7.80;99.90;;;;;;5055260;28;20859;-78
2022/03/30 01:57:19;;;;;;;10.00;5.80;;;7.70;99.90;;;;;;5059684;28;20461;-79
2022/03/30 01:59:48;;;;;;;17.17;6.07;;;7.70;99.90;;;;;;5061761;28;20438;-78
2022/03/30 02:02:15;;;;;;;11.20;7.03;;;7.70;99.90;;;;;;5054661;28;20433;-78
2022/03/30 02:04:43;;;;;;;13.87;5.23;;;7.70;99.90;;;;;;5052270;28;20434;-78
2022/03/30 02:07:10;;;;;;;11.07;6.70;;;7.70;99.90;;;;;;5052874;28;20461;-78
2022/03/30 02:09:37;;;;;;;21.40;7.20;;;7.70;99.90;;;;;;5056082;28;20485;-78
2022/03/30 02:12:06;;;;;;;11.27;6.87;;;7.60;99.90;;;;;;5054114;28;20488;-78
2022/03/30 02:14:35;;;;;;;13.67;7.93;;;7.50;99.90;;;;;;5056725;28;20466;-77
2022/03/30 02:17:02;;;;;;;13.80;5.33;;;7.50;99.90;;;;;;5057219;28;20449;-78
2022/03/30 02:19:29;;;;;;;11.63;5.30;;;7.50;99.90;;;;;;5052117;28;20477;-77
2022/03/30 02:21:56;;;;;;;14.93;6.57;;;7.20;99.90;;;;;;5058558;28;20439;-78
2022/03/30 02:24:23;;;;;;;14.10;6.83;;;7.10;99.90;;;;;;5056005;28;20429;-77
2022/03/30 02:26:49;;;;;;;14.03;6.93;;;7.10;99.90;;;;;;5055802;28;20676;-77
2022/03/30 02:29:18;;;;;;;9.10;5.33;;;7.00;99.90;;;;;;5055289;28;20454;-77
2022/03/30 02:31:45;;;;;;;18.20;8.07;;;6.90;99.90;;;;;;5049989;28;20552;-77
2022/03/30 02:34:12;;;;;;;11.13;4.63;;;6.80;99.90;;;;;;5051751;28;20433;-78
2022/03/30 02:36:40;;;;;;;11.53;6.33;;;6.80;99.90;;;;;;5054831;28;21112;-77
2022/03/30 02:39:11;;;;;;;10.07;6.17;;;6.60;99.90;;;;;;5054022;28;20896;-78
2022/03/30 02:41:37;;;;;;;15.53;7.57;;;6.50;99.90;;;;;;5050338;28;20441;-78
2022/03/30 02:44:05;;;;;;;21.43;6.37;;;6.50;99.90;;;;;;5056371;28;20545;-79
2022/03/30 02:46:33;;;;;;;8.57;4.97;;;6.50;99.90;;;;;;5050998;28;20502;-77
2022/03/30 02:49:00;;;;;;;13.60;7.60;;;6.60;99.90;;;;;;5047268;28;20463;-77
2022/03/30 02:51:27;;;;;;;13.47;4.90;;;6.60;99.90;;;;;;5053401;28;20444;-77
2022/03/30 02:53:55;;;;;;;28.53;7.40;;;6.60;99.90;;;;;;5057476;28;20497;-78
2022/03/30 02:56:22;;;;;;;11.67;6.17;;;6.50;99.90;;;;;;5054854;28;20453;-77
2022/03/30 02:58:48;;;;;;;14.87;6.13;;;6.40;99.90;;;;;;5052881;28;20490;-78
2022/03/30 03:01:15;;;;;;;9.80;5.57;;;6.50;99.90;;;;;;5039934;28;20435;-78
2022/03/30 03:03:44;;;;;;;13.87;7.00;;;6.40;99.90;;;;;;5047621;28;20464;-77
2022/03/30 03:06:11;;;;;;;14.80;6.50;;;6.40;99.90;;;;;;5047190;28;21032;-77
2022/03/30 03:08:38;;;;;;;11.93;5.80;;;6.30;99.90;;;;;;5050439;28;20465;-77
2022/03/30 03:11:04;;;;;;;13.30;6.00;;;6.30;99.90;;;;;;5053389;28;20450;-78
2022/03/30 03:13:31;;;;;;;10.50;4.83;;;6.00;99.90;;;;;;5056451;28;20990;-78
2022/03/30 03:15:58;;;;;;;11.07;5.33;;;5.80;99.90;;;;;;5059607;28;21074;-77
2022/03/30 03:18:25;;;;;;;14.30;6.53;;;5.80;99.90;;;;;;5052849;28;20538;-78
2022/03/30 03:20:53;;;;;;;20.37;7.00;;;6.00;99.90;;;;;;5055486;28;20438;-77
2022/03/30 03:23:19;;;;;;;22.53;6.03;;;5.80;99.90;;;;;;5062887;28;20645;-77
2022/03/30 03:25:46;;;;;;;11.63;5.17;;;5.80;99.90;;;;;;5058571;28;21067;-77
2022/03/30 03:28:14;;;;;;;9.97;5.80;;;5.70;99.90;;;;;;5044000;28;20454;-78
2022/03/30 03:30:43;;;;;;;12.97;6.07;;;5.80;99.90;;;;;;5047518;28;20442;-79
2022/03/30 03:33:11;;;;;;;13.00;6.10;;;5.90;99.90;;;;;;5057632;28;20450;-77
2022/03/30 03:35:38;;;;;;;12.53;6.40;;;5.90;99.90;;;;;;5050862;28;20513;-77
2022/03/30 03:38:08;;;;;;;22.33;7.37;;;6.00;99.90;;;;;;5059080;28;20444;-77
2022/03/30 03:40:35;;;;;;;16.47;7.67;;;5.90;99.90;;;;;;5055832;28;20458;-76
2022/03/30 03:43:03;;;;;;;20.63;8.53;;;5.80;99.90;;;;;;5054113;28;20454;-77
2022/03/30 03:45:30;;;;;;;25.77;5.00;;;5.90;99.90;;;;;;5050118;28;20486;-77
2022/03/30 03:47:58;;;;;;;15.23;6.57;;;6.00;99.90;;;;;;5054210;28;20679;-77
2022/03/30 03:50:26;;;;;;;16.03;7.97;;;6.00;99.90;;;;;;5054774;28;21970;-77
2022/03/30 03:52:53;;;;;;;11.33;7.07;;;6.00;99.90;;;;;;5051445;28;20826;-77
2022/03/30 03:55:22;;;;;;;22.23;5.97;;;6.00;99.90;;;;;;5052896;28;20457;-77
2022/03/30 03:57:50;;;;;;;23.00;8.57;;;5.90;99.90;;;;;;5050658;28;20509;-77
2022/03/30 04:00:18;;;;;;;14.37;5.93;;;6.00;99.90;;;;;;5051614;28;20545;-77
2022/03/30 04:02:45;;;;;;;14.90;6.00;;;5.90;99.90;;;;;;5046593;28;20462;-77
2022/03/30 04:05:13;;;;;;;9.23;6.17;;;5.90;99.90;;;;;;5051827;28;20934;-77
2022/03/30 04:07:41;;;;;;;14.10;5.23;;;5.90;99.90;;;;;;5053436;28;20464;-77
2022/03/30 04:10:09;;;;;;;11.67;5.10;;;6.00;99.90;;;;;;5057418;28;20545;-78
2022/03/30 04:12:38;;;;;;;10.03;5.57;;;6.00;99.90;;;;;;5055734;28;20671;-77
2022/03/30 04:15:06;;;;;;;19.57;7.97;;;6.00;99.90;;;;;;5049155;28;20459;-78
2022/03/30 04:17:33;;;;;;;20.10;7.20;;;6.00;99.90;;;;;;5059096;28;20442;-77
2022/03/30 04:20:00;;;;;;;11.00;5.63;;;6.00;99.90;;;;;;5063062;28;20554;-77
2022/03/30 04:22:27;;;;;;;17.90;7.60;;;5.90;99.90;;;;;;5056975;28;20484;-79
2022/03/30 04:24:53;;;;;;;8.23;5.00;;;5.90;99.90;;;;;;5062497;28;20583;-79
2022/03/30 04:27:20;;;;;;;17.20;6.50;;;5.70;99.90;;;;;;5060201;28;20536;-78
2022/03/30 04:29:48;;;;;;;14.03;5.63;;;5.60;99.90;;;;;;5065004;28;21028;-78
2022/03/30 04:32:15;;;;;;;15.03;7.47;;;5.70;99.90;;;;;;5060338;28;20430;-78
2022/03/30 04:34:42;;;;;;;12.80;4.90;;;5.70;99.90;;;;;;5066984;28;20855;-76
2022/03/30 04:37:08;;;;;;;16.70;6.50;;;5.70;99.90;;;;;;5068332;28;20582;-77
2022/03/30 04:39:35;;;;;;;16.17;6.93;;;5.80;99.90;;;;;;5064305;28;20421;-78
2022/03/30 04:42:02;;;;;;;11.87;6.50;;;5.80;99.90;;;;;;5068181;28;20508;-78
2022/03/30 04:44:29;;;;;;;18.50;8.13;;;5.70;99.90;;;;;;5067759;28;20438;-78
2022/03/30 04:46:57;;;;;;;10.87;4.93;;;5.70;99.90;;;;;;5064611;28;20474;-77
2022/03/30 04:49:25;;;;;;;10.87;5.63;;;5.60;99.90;;;;;;5064712;28;20541;-78
2022/03/30 04:51:52;;;;;;;22.17;8.70;;;5.50;99.90;;;;;;5070614;28;20447;-78
2022/03/30 04:54:19;;;;;;;18.57;5.53;;;5.60;99.90;;;;;;5073082;28;20475;-78
2022/03/30 04:56:47;;;;;;;11.13;7.10;;;5.50;99.90;;;;;;5067384;28;20466;-77
2022/03/30 04:59:14;;;;;;;20.17;10.57;;;5.50;99.90;;;;;;5069049;28;20478;-79
2022/03/30 05:01:41;;;;;;;13.20;5.67;;;5.40;99.90;;;;;;5078634;28;20425;-79
2022/03/30 05:04:09;;;;;;;22.43;8.43;;;5.40;99.90;;;;;;5080216;28;20417;-78
2022/03/30 05:06:37;;;;;;;15.87;6.77;;;5.40;99.90;;;;;;5075093;28;20560;-79
2022/03/30 05:09:04;;;;;;;15.37;8.10;;;5.50;99.90;;;;;;5074275;28;20441;-78
2022/03/30 05:11:31;;;;;;;10.77;5.80;;;5.20;99.90;;;;;;5082897;28;20815;-76
2022/03/30 05:13:58;;;;;;;20.50;7.57;;;5.10;99.90;;;;;;5071857;28;20447;-78
2022/03/30 05:16:24;;;;;;;11.93;8.67;;;5.00;99.90;;;;;;5078182;28;20433;-77
2022/03/30 05:18:51;;;;;;;10.30;5.37;;;4.80;99.90;;;;;;5066068;28;20418;-78
2022/03/30 05:21:21;;;;;;;11.97;5.50;;;4.70;99.90;;;;;;5065809;28;20467;-78
2022/03/30 05:23:48;;;;;;;9.80;5.40;;;4.80;99.90;;;;;;5066518;28;20499;-77
2022/03/30 05:26:15;;;;;;;16.57;5.40;;;4.90;99.90;;;;;;5068661;28;20462;-78
2022/03/30 05:28:42;;;;;;;14.83;6.50;;;4.70;99.90;;;;;;5069223;28;20452;-79
2022/03/30 05:31:09;;;;;;;13.87;7.00;;;4.60;99.90;;;;;;5088610;28;20419;-78
2022/03/30 05:33:35;;;;;;;16.50;5.90;;;4.70;99.90;;;;;;5086441;28;20410;-77
2022/03/30 05:36:03;;;;;;;16.30;5.83;;;4.70;99.90;;;;;;5077635;28;20475;-79
2022/03/30 05:38:34;;;;;;;16.90;5.10;;;4.80;99.90;;;;;;5078231;28;21128;-79
2022/03/30 05:41:03;;;;;;;19.07;6.40;;;4.90;99.90;;;;;;5080019;28;20508;-78
2022/03/30 05:43:29;;;;;;;8.03;5.33;;;4.90;99.90;;;;;;5077575;28;20429;-76
2022/03/30 05:45:56;;;;;;;16.60;6.40;;;5.00;99.90;;;;;;5077751;28;20719;-77
2022/03/30 05:48:24;;;;;;;12.40;6.43;;;5.00;99.90;;;;;;5076257;28;21944;-77
2022/03/30 05:50:53;;;;;;;9.50;7.17;;;5.10;99.90;;;;;;5068280;28;20439;-77
2022/03/30 05:53:20;;;;;;;12.83;6.43;;;5.20;99.90;;;;;;5062287;28;20443;-77
2022/03/30 05:55:48;;;;;;;8.23;5.30;;;5.30;99.90;;;;;;5065419;28;20463;-77
2022/03/30 05:58:15;;;;;;;13.40;6.70;;;5.30;99.90;;;;;;5056051;28;20462;-78
2022/03/30 06:00:42;;;;;;;11.73;6.47;;;5.40;99.90;;;;;;5056291;28;20803;-78
2022/03/30 06:03:10;;;;;;;12.30;7.63;;;5.40;99.90;;;;;;5055980;28;20932;-77
2022/03/30 06:05:37;;;;;;;15.50;6.40;;;5.40;99.90;;;;;;5055908;28;20456;-78
2022/03/30 06:08:05;;;;;;;8.87;4.30;;;5.40;99.90;;;;;;5060518;28;20485;-78
2022/03/30 06:10:32;;;;;;;17.03;6.50;;;5.40;99.90;;;;;;5057729;28;20433;-79
2022/03/30 06:13:01;;;;;;;12.40;5.07;;;5.40;99.90;;;;;;5061659;28;21067;-79
2022/03/30 06:15:28;;;;;;;21.97;7.57;;;5.70;99.90;;;;;;5054263;28;20902;-76
2022/03/30 06:17:56;;;;;;;15.87;5.67;;;5.60;99.90;;;;;;5060785;28;20473;-77
2022/03/30 06:20:24;;;;;;;10.93;5.40;;;5.80;99.90;;;;;;5053651;28;20969;-79
2022/03/30 06:22:51;;;;;;;13.20;6.10;;;6.30;99.90;;;;;;5056852;28;20517;-78
2022/03/30 06:25:18;;;;;;;7.27;4.83;;;6.50;99.90;;;;;;5063164;28;20449;-77
2022/03/30 06:27:45;;;;;;;15.20;5.10;;;6.70;99.90;;;;;;5058653;28;20498;-78
2022/03/30 06:30:13;;;;;;;11.60;6.90;;;6.60;99.90;;;;;;5057029;28;20458;-78
2022/03/30 06:32:40;;;;;;;14.83;4.33;;;6.30;99.90;;;;;;5063977;28;20450;-77
2022/03/30 06:35:08;;;;;;;15.17;8.93;;;6.30;99.90;;;;;;5058926;28;20423;-78
2022/03/30 06:37:34;;;;;;;15.93;6.00;;;6.40;99.90;;;;;;5052995;28;20456;-77
2022/03/30 06:40:01;;;;;;;12.40;5.27;;;6.60;99.90;;;;;;5061742;28;20429;-77
2022/03/30 06:42:28;;;;;;;12.70;4.77;;;6.50;99.90;;;;;;5059775;28;20774;-78
2022/03/30 06:44:56;;;;;;;7.97;4.70;;;6.60;99.90;;;;;;5055684;28;20520;-78
2022/03/30 06:47:25;;;;;;;16.73;4.70;;;6.90;99.90;;;;;;5054120;28;20508;-77
2022/03/30 06:49:52;;;;;;;10.30;4.73;;;7.20;99.90;;;;;;5058479;28;20552;-77
2022/03/30 06:52:18;;;;;;;12.97;6.03;;;7.10;99.90;;;;;;5058393;28;20452;-78
2022/03/30 06:54:45;;;;;;;11.73;5.27;;;7.40;99.90;;;;;;5056046;28;20481;-77
2022/03/30 06:57:12;;;;;;;9.43;4.50;;;7.50;99.90;;;;;;5055673;28;20446;-77
2022/03/30 06:59:38;;;;;;;10.70;6.00;;;7.80;99.90;;;;;;5061186;28;20494;-77
2022/03/30 07:02:05;;;;;;;15.10;4.80;;;8.00;99.90;;;;;;5056345;28;20450;-77
2022/03/30 07:04:35;;;;;;;12.47;6.13;;;8.10;99.90;;;;;;5057371;28;20442;-77
2022/03/30 07:12:32;;;;;;;11.57;5.20;;;9.70;99.90;;;;;;5062716;28;20452;-77
2022/03/30 07:14:59;;;;;;;15.67;6.30;;;10.20;99.90;;;;;;5060227;28;20522;-78
2022/03/30 07:17:25;;;;;;;8.93;4.90;;;10.00;99.90;;;;;;5055745;28;20572;-78
2022/03/30 07:19:54;;;;;;;9.07;5.10;;;9.50;99.90;;;;;;5059327;28;20443;-78
2022/03/30 07:22:21;;;;;;;8.40;6.07;;;9.60;99.90;;;;;;5059082;28;20505;-78
2022/03/30 07:24:47;;;;;;;8.97;5.80;;;9.30;99.90;;;;;;5051990;28;20463;-77
2022/03/30 07:27:14;;;;;;;9.27;4.60;;;9.50;99.90;;;;;;5059766;28;20482;-77
2022/03/30 07:29:41;;;;;;;10.07;4.60;;;9.50;99.90;;;;;;5054553;28;20485;-78
2022/03/30 07:32:08;;;;;;;7.73;4.10;;;9.30;99.90;;;;;;5060249;28;20539;-77
2022/03/30 07:34:36;;;;;;;13.90;5.27;;;9.20;99.90;;;;;;5058830;28;20463;-77
2022/03/30 07:37:05;;;;;;;8.70;5.60;;;9.60;99.90;;;;;;5055875;28;20493;-77
2022/03/30 07:39:31;;;;;;;11.40;5.60;;;9.90;99.90;;;;;;5061762;28;20452;-78
2022/03/30 07:41:58;;;;;;;10.93;6.20;;;10.30;99.90;;;;;;5062662;28;20524;-77
2022/03/30 07:44:27;;;;;;;10.70;5.40;;;10.70;99.90;;;;;;5063270;28;20460;-77
2022/03/30 07:46:54;;;;;;;10.53;6.30;;;11.00;99.90;;;;;;5061414;28;20854;-78
2022/03/30 07:49:22;;;;;;;14.33;8.30;;;11.20;99.90;;;;;;5063471;28;20482;-78
2022/03/30 07:51:48;;;;;;;17.13;5.97;;;11.40;99.90;;;;;;5059980;28;20485;-77
2022/03/30 07:54:18;;;;;;;18.10;7.93;;;11.50;99.90;;;;;;5063249;28;20459;-78
2022/03/30 07:56:45;;;;;;;10.57;5.40;;;11.80;99.90;;;;;;5059291;28;20508;-78
2022/03/30 07:59:11;;;;;;;16.33;6.57;;;12.00;99.90;;;;;;5054187;28;20451;-79
2022/03/30 08:01:38;;;;;;;13.50;6.03;;;12.10;99.90;;;;;;5056178;28;20638;-78
2022/03/30 08:04:05;;;;;;;10.80;6.23;;;12.30;99.90;;;;;;5055980;28;20455;-78
2022/03/30 08:06:32;;;;;;;8.60;5.90;;;13.00;99.90;;;;;;5052655;28;20478;-78
2022/03/30 08:08:58;;;;;;;11.47;5.60;;;13.10;99.90;;;;;;5055290;28;20482;-78
2022/03/30 08:11:28;;;;;;;11.27;6.43;;;13.40;99.90;;;;;;5067957;28;20599;-78
2022/03/30 08:13:55;;;;;;;11.90;6.60;;;13.60;99.90;;;;;;5065469;28;20478;-78
2022/03/30 08:16:22;;;;;;;14.90;6.50;;;13.80;99.90;;;;;;5064990;28;20478;-78
2022/03/30 08:18:51;;;;;;;14.30;6.80;;;13.80;99.90;;;;;;5060253;28;20443;-77
2022/03/30 08:24:02;;;;;;;21.43;5.57;;;13.80;99.90;;;;;;5063248;28;20435;-77
2022/03/30 08:26:33;;;;;;;20.10;6.60;;;14.00;99.90;;;;;;5064645;28;20474;-78
2022/03/30 08:29:00;;;;;;;7.67;6.47;;;13.90;99.90;;;;;;5062654;28;20573;-78
2022/03/30 08:31:30;;;;;;;7.87;4.37;;;13.90;99.90;;;;;;5064594;28;20943;-78
2022/03/30 08:33:57;;;;;;;6.90;4.80;;;14.40;99.90;;;;;;5065756;28;20489;-79
2022/03/30 08:36:24;;;;;;;7.50;5.17;;;14.10;99.90;;;;;;5059372;28;20486;-79
2022/03/30 08:38:51;;;;;;;11.90;5.63;;;14.70;99.90;;;;;;5061672;28;20439;-78
2022/03/30 08:41:18;;;;;;;7.23;4.00;;;15.70;99.90;;;;;;5060576;28;20829;-78
2022/03/30 08:43:47;;;;;;;9.37;4.80;;;16.10;99.90;;;;;;5060750;28;20442;-78
2022/03/30 08:46:14;;;;;;;9.37;5.00;;;15.50;99.90;;;;;;5059755;28;20882;-78
2022/03/30 08:48:41;;;;;;;9.50;6.23;;;15.00;99.90;;;;;;5064256;28;20537;-78
2022/03/30 08:51:08;;;;;;;6.03;5.23;;;14.60;99.90;;;;;;5062103;28;20869;-78
2022/03/30 08:53:35;;;;;;;11.00;6.33;;;14.80;99.90;;;;;;5064541;28;20462;-77
2022/03/30 08:56:02;;;;;;;10.20;4.80;;;15.30;99.90;;;;;;5061813;28;20470;-77
2022/03/30 08:58:29;;;;;;;11.23;4.83;;;15.70;99.90;;;;;;5061114;28;20497;-78
2022/03/30 09:01:07;;;;;;;6.67;4.53;;;16.30;99.70;;;;;;5060414;28;20439;-78
2022/03/30 09:03:36;;;;;;;10.87;5.10;;;16.10;99.30;;;;;;5062377;28;20457;-78
2022/03/30 09:06:03;;;;;;;7.97;4.00;;;16.20;98.50;;;;;;5060298;28;20526;-78
2022/03/30 09:08:30;;;;;;;9.90;5.63;;;15.60;98.80;;;;;;5065581;28;20458;-78
2022/03/30 09:11:04;;;;;;;9.73;5.53;;;16.40;98.50;;;;;;5057983;28;20546;-79
2022/03/30 09:13:31;;;;;;;9.47;5.33;;;16.30;98.00;;;;;;5062859;28;20515;-78
2022/03/30 09:16:00;;;;;;;12.50;4.90;;;16.40;97.70;;;;;;5062327;28;20519;-78
2022/03/30 09:18:32;;;;;;;10.23;5.93;;;16.70;96.00;;;;;;5065674;28;20498;-78
2022/03/30 09:20:59;;;;;;;6.90;3.87;;;16.10;96.80;;;;;;5068017;28;20496;-77
2022/03/30 09:23:28;;;;;;;14.50;5.30;;;16.80;97.10;;;;;;5068491;28;21348;-77
2022/03/30 09:26:01;;;;;;;9.83;4.73;;;16.60;96.30;;;;;;5061473;28;20478;-78
2022/03/30 09:28:28;;;;;;;10.00;5.90;;;16.70;95.20;;;;;;5060338;28;20421;-78
2022/03/30 09:30:55;;;;;;;13.83;4.50;;;16.90;95.70;;;;;;5060044;28;20482;-78
2022/03/30 09:33:25;;;;;;;8.33;4.80;;;17.60;95.10;;;;;;5056094;28;20567;-78
2022/03/30 09:35:52;;;;;;;12.93;5.00;;;17.70;93.40;;;;;;5059002;28;20489;-79
2022/03/30 09:38:21;;;;;;;7.40;4.77;;;18.00;93.90;;;;;;5057371;28;20482;-78
2022/03/30 09:40:49;;;;;;;11.23;5.63;;;18.40;93.60;;;;;;5063721;28;20448;-80
2022/03/30 09:43:19;;;;;;;8.67;5.27;;;19.20;91.80;;;;;;5062926;28;20470;-79
2022/03/30 09:45:48;;;;;;;11.77;5.17;;;18.90;89.20;;;;;;5057233;28;20466;-79
2022/03/30 09:48:18;;;;;;;7.90;4.73;;;18.20;90.30;;;;;;5058598;28;21241;-79
2022/03/30 09:50:52;;;;;;;5.67;4.50;;;18.50;92.00;;;;;;5062620;28;20513;-76
2022/03/30 09:53:20;;;;;;;7.60;4.70;;;18.90;89.00;;;;;;5063717;28;20455;-75
2022/03/30 09:56:00;;;;;;;12.33;6.87;;;19.20;89.60;;;;;;5056992;28;20478;-75
2022/03/30 09:58:29;;;;;;;17.80;7.03;;;19.60;87.70;;;;;;5082552;28;20449;-75
2022/03/30 10:01:08;;;;;;;7.37;4.67;;;20.20;83.00;;;;;;5069872;28;20453;-76
2022/03/30 10:03:41;;;;;;;23.10;8.50;;;19.30;85.70;;;;;;5055904;28;20455;-76
2022/03/30 10:06:10;;;;;;;7.23;5.43;;;19.80;86.10;;;;;;5057514;28;20479;-77
2022/03/30 10:08:39;;;;;;;12.40;5.80;;;20.90;81.60;;;;;;5054506;28;20455;-77
2022/03/30 10:11:10;;;;;;;7.57;4.60;;;20.30;78.60;;;;;;5065050;28;20545;-77
2022/03/30 10:13:38;;;;;;;16.97;9.53;;;20.80;77.10;;;;;;5059951;28;20463;-77
2022/03/30 10:16:06;;;;;;;10.70;8.00;;;20.80;76.00;;;;;;5060031;28;20470;-79
2022/03/30 10:18:35;;;;;;;12.40;6.93;;;20.20;76.00;;;;;;5063815;28;20439;-76
2022/03/30 10:21:22;;;;;;;31.97;7.70;;;19.60;75.60;;;;;;5063735;28;20447;-77
2022/03/30 10:24:03;;;;;;;21.20;7.90;;;18.30;77.10;;;;;;5060097;28;20546;-77
2022/03/30 10:26:38;;;;;;;9.10;5.67;;;17.90;79.30;;;;;;5062567;28;20521;-77
2022/03/30 10:29:12;;;;;;;9.57;6.33;;;17.60;80.60;;;;;;5056831;28;20542;-77
2022/03/30 10:31:39;;;;;;;9.73;4.97;;;18.30;81.20;;;;;;5063684;28;20455;-77
2022/03/30 10:34:24;;;;;;;8.30;4.10;;;19.30;79.80;;;;;;5066668;28;20828;-77
2022/03/30 10:37:05;;;;;;;29.90;5.70;;;19.90;78.90;;;;;;5055199;28;20540;-77
2022/03/30 10:39:32;;;;;;;10.43;5.80;;;20.40;75.00;;;;;;5063115;28;20486;-76
2022/03/30 10:42:06;;;;;;;10.93;5.67;;;19.80;74.20;;;;;;5064700;28;20534;-76
2022/03/30 10:44:42;;;;;;;115.83;16.50;;;19.10;76.50;;;;;;5062292;28;20453;-76
2022/03/30 10:47:16;;;;;;;58.23;7.83;;;19.00;76.90;;;;;;5055831;28;20501;-77
2022/03/30 10:49:50;;;;;;;41.10;10.13;;;19.70;75.80;;;;;;5060242;28;20500;-76
2022/03/30 10:52:40;;;;;;;12.67;5.27;;;19.80;76.10;;;;;;5061508;28;20470;-76
2022/03/30 10:55:33;;;;;;;15.50;5.70;;;19.80;75.00;;;;;;5059198;28;20469;-76
2022/03/30 10:58:02;;;;;;;24.03;7.00;;;19.20;74.00;;;;;;5061131;28;20454;-76
2022/03/30 11:00:34;;;;;;;17.03;5.87;;;19.70;73.80;;;;;;5053669;28;20455;-76
2022/03/30 11:03:09;;;;;;;25.27;9.97;;;20.30;72.50;;;;;;5061985;28;21052;-76
2022/03/30 11:05:40;;;;;;;64.47;9.53;;;21.00;73.40;;;;;;5066703;28;21140;-76
2022/03/30 11:08:48;;;;;;;49.30;9.20;;;19.40;71.50;;;;;;5062312;28;20516;-76
2022/03/30 11:11:23;;;;;;;11.97;5.40;;;17.40;75.40;;;;;;5055786;28;20487;-76
2022/03/30 11:14:10;;;;;;;15.23;5.07;;;17.10;79.00;;;;;;5061084;28;20516;-76
2022/03/30 11:16:54;;;;;;;21.93;7.97;;;17.30;79.50;;;;;;5065296;28;20958;-76
2022/03/30 11:19:29;;;;;;;27.10;8.63;;;17.50;78.90;;;;;;5058131;28;20447;-76
2022/03/30 11:22:11;;;;;;;19.40;5.27;;;17.70;80.50;;;;;;5063009;28;20454;-75
2022/03/30 11:24:46;;;;;;;9.20;5.40;;;18.90;77.30;;;;;;5052868;28;20450;-76
2022/03/30 11:27:23;;;;;;;18.80;5.73;;;20.60;73.60;;;;;;5059754;28;20668;-77
2022/03/30 11:30:24;;;;;;;16.20;5.33;;;20.80;70.20;;;;;;5054069;28;20864;-76
2022/03/30 11:33:22;;;;;;;20.63;5.57;;;21.30;72.50;;;;;;5059921;28;20481;-77
2022/03/30 11:35:49;;;;;;;8.83;6.10;;;21.70;67.40;;;;;;5066684;28;20470;-77
2022/03/30 11:38:29;;;;;;;23.70;6.23;;;21.20;66.30;;;;;;5067566;28;20564;-77
2022/03/30 11:41:08;;;;;;;29.27;6.33;;;21.70;67.80;;;;;;5058600;28;20462;-76
2022/03/30 11:45:12;;;;;;;9.53;5.43;;;21.80;65.60;;;;;;5069179;28;20435;-77
2022/03/30 11:46:26;;;;;;;123.33;15.83;;;22.80;64.40;;;;;;5068624;28;21167;-77
2022/03/30 11:49:00;;;;;;;10.20;4.13;;;21.80;64.10;;;;;;5065648;28;20450;-75
2022/03/30 11:51:27;;;;;;;12.33;5.50;;;21.20;64.90;;;;;;5070191;28;20573;-78
2022/03/30 11:54:17;;;;;;;22.03;6.73;;;20.10;65.00;;;;;;5064656;28;20486;-77
2022/03/30 11:56:45;;;;;;;29.40;7.43;;;19.50;69.00;;;;;;5060377;28;20471;-77
2022/03/30 11:59:12;;;;;;;140.57;20.60;;;20.80;67.50;;;;;;5068189;28;20469;-76
2022/03/30 12:01:41;;;;;;;8.93;5.33;;;21.30;65.80;;;;;;5069261;28;20442;-76
2022/03/30 12:04:09;;;;;;;19.20;5.67;;;22.90;64.90;;;;;;5062699;28;20492;-77
2022/03/30 12:06:44;;;;;;;33.37;7.80;;;24.00;60.00;;;;;;5057315;28;20478;-76
2022/03/30 12:09:15;;;;;;;8.97;6.93;;;24.40;58.80;;;;;;5069116;28;20461;-77
2022/03/30 12:11:42;;;;;;;8.33;5.53;;;23.20;58.90;;;;;;5061784;28;20486;-77
2022/03/30 12:14:11;;;;;;;10.13;5.10;;;21.60;60.60;;;;;;5067374;28;20453;-76
2022/03/30 12:16:40;;;;;;;11.27;5.70;;;21.90;60.70;;;;;;5066669;28;20493;-78
2022/03/30 12:19:09;;;;;;;8.00;5.20;;;20.40;61.10;;;;;;5066705;28;20502;-77
2022/03/30 12:21:38;;;;;;;18.63;5.97;;;19.00;63.00;;;;;;5065437;28;20442;-77
2022/03/30 12:24:09;;;;;;;12.90;5.77;;;18.70;64.20;;;;;;5064153;28;20949;-77
2022/03/30 12:26:36;;;;;;;5.73;3.93;;;18.50;65.60;;;;;;5062973;28;20459;-75
2022/03/30 12:29:04;;;;;;;14.80;7.50;;;19.40;64.80;;;;;;5059341;28;20442;-76
2022/03/30 12:31:34;;;;;;;80.50;12.43;;;20.20;62.50;;;;;;5066119;28;20470;-76
2022/03/30 12:34:11;;;;;;;19.33;6.50;;;21.10;62.80;;;;;;5058229;28;21220;-76
2022/03/30 12:36:43;;;;;;;8.67;5.40;;;20.70;60.60;;;;;;5050026;28;21548;-77
2022/03/30 12:39:17;;;;;;;10.37;5.07;;;19.90;63.20;;;;;;5055368;28;20466;-77
2022/03/30 12:41:44;;;;;;;14.80;6.23;;;20.40;62.90;;;;;;5059056;28;21078;-77
2022/03/30 12:44:11;;;;;;;15.90;6.10;;;19.60;63.00;;;;;;5063507;28;20469;-77
2022/03/30 12:46:40;;;;;;;13.93;6.33;;;18.80;64.30;;;;;;5088473;22;20489;-71
2022/03/30 12:49:08;;;;;;;42.47;7.63;;;17.40;67.70;;;;;;5076767;28;20477;-72
2022/03/30 12:51:36;;;;;;;37.27;8.07;;;17.50;70.90;;;;;;5081252;28;20510;-71
2022/03/30 12:54:05;;;;;;;5.40;4.10;;;19.30;68.70;;;;;;5084001;28;20459;-72
2022/03/30 12:56:32;;;;;;;21.67;5.47;;;20.70;64.70;;;;;;5076339;28;20477;-73
2022/03/30 12:59:01;;;;;;;42.30;7.63;;;21.00;61.70;;;;;;5064666;28;20446;-72
2022/03/30 13:01:33;;;;;;;17.13;6.07;;;21.30;62.40;;;;;;5068795;28;20452;-72
2022/03/30 13:04:00;;;;;;;8.63;4.60;;;22.30;59.50;;;;;;5061723;28;20454;-72
2022/03/30 13:06:27;;;;;;;8.00;4.43;;;22.40;60.20;;;;;;5061835;28;21185;-72